Jfe Tokyo Bay — JD2012 — position and weather

sailwx.info

Track history (hours):
 
Tides and Currents Weather Stations Pressure Air Temp Water Temp Dewpoint Dewpoint Depression Visibility Wind Speed Wind Dir Waves Ship Positions

Jfe Tokyo Bay

Last reported at 2018-Feb-23 02:59 UTC. Time now 2018-Feb-23 03:16 UTC.
Position N 35°23' E 139°39'.

Length 70 m; draft 3.9 m.

Type: Cargo ship. MMSI: 431501791.

Date/timePositionNaut miles runAvg speedWind from/ knotsBaromVisibWave heightAir tempDewpointWater temp
2018-Feb-23 02:59N 35°23' E 139°39'0 0.0
2018-Feb-23 02:29N 35°23' E 139°39'0 0.0
2018-Feb-23 01:59N 35°23' E 139°39'0 0.0
2018-Feb-23 01:26N 35°23' E 139°39'0 0.0
2018-Feb-23 00:59N 35°23' E 139°39'0 0.0
2018-Feb-23 00:29N 35°23' E 139°39'0 0.0
2018-Feb-22 23:59N 35°23' E 139°39'0 0.0
2018-Feb-22 23:29N 35°23' E 139°39'0 0.7
2018-Feb-22 23:00N 35°24' E 139°39'4 7.9
2018-Feb-22 22:30N 35°25' E 139°43'5 9.5
2018-Feb-22 22:00N 35°28' E 139°48'5 9.6
2018-Feb-22 21:30N 35°31' E 139°53'5 9.5
2018-Feb-22 21:00N 35°32' E 139°58'5 9.5
2018-Feb-22 20:30N 35°33' E 140°04'2 3.6
2018-Feb-22 20:00N 35°33' E 140°06'0 0.0
2018-Feb-22 19:16N 35°33' E 140°06'0 0.0
2018-Feb-22 18:58N 35°33' E 140°06'0 0.0
2018-Feb-22 18:28N 35°33' E 140°06'0 0.0
2018-Feb-22 17:58N 35°33' E 140°06'0 0.0
2018-Feb-22 17:28N 35°33' E 140°06'0 0.0
2018-Feb-22 16:58N 35°33' E 140°06'0 0.0
2018-Feb-22 16:28N 35°33' E 140°06'0 0.0
2018-Feb-22 15:58N 35°33' E 140°06'0 0.0
2018-Feb-22 15:28N 35°33' E 140°06'0 0.0
2018-Feb-22 14:58N 35°33' E 140°06'0 0.0
2018-Feb-22 14:28N 35°33' E 140°06'0 0.0
2018-Feb-22 13:58N 35°33' E 140°06'0 0.0
2018-Feb-22 13:28N 35°33' E 140°06'0 0.0
2018-Feb-22 12:58N 35°33' E 140°06'0 0.0
2018-Feb-22 12:28N 35°33' E 140°06'0 0.0
2018-Feb-22 11:58N 35°33' E 140°06'3 6.5
2018-Feb-22 11:30N 35°33' E 140°03'5 9.8
2018-Feb-22 11:01N 35°31' E 139°57'5 9.6
2018-Feb-22 10:31N 35°28' E 139°52'5 9.7
2018-Feb-22 10:01N 35°26' E 139°47'5 9.7
2018-Feb-22 09:31N 35°24' E 139°42'3 4.6
2018-Feb-22 08:56N 35°23' E 139°39'0 0.0
2018-Feb-22 08:29N 35°23' E 139°39'0 0.0
2018-Feb-22 07:59N 35°23' E 139°39'0 0.0
2018-Feb-22 07:29N 35°23' E 139°39'0 0.0
2018-Feb-22 06:59N 35°23' E 139°39'0 0.0
2018-Feb-22 06:29N 35°23' E 139°39'0 0.0
2018-Feb-22 05:59N 35°23' E 139°39'0 0.0
2018-Feb-22 05:29N 35°23' E 139°39'0 0.0
2018-Feb-22 04:56N 35°23' E 139°39'0 0.0
2018-Feb-22 04:29N 35°23' E 139°39'0 0.0
2018-Feb-22 03:59N 35°23' E 139°39'0 0.0
2018-Feb-22 03:29N 35°23' E 139°39'0 0.0
2018-Feb-22 02:59N 35°23' E 139°39'0 0.0
2018-Feb-22 02:29N 35°23' E 139°39'0 0.0
2018-Feb-22 01:59N 35°23' E 139°39'0 0.0
2018-Feb-22 01:29N 35°23' E 139°39'0 0.0
2018-Feb-22 00:59N 35°23' E 139°39'0 0.0
2018-Feb-22 00:29N 35°23' E 139°39'0 0.0
2018-Feb-21 23:59N 35°23' E 139°39'0 0.0
2018-Feb-21 23:29N 35°23' E 139°39'0 0.8
2018-Feb-21 23:00N 35°24' E 139°39'4 8.1
2018-Feb-21 22:30N 35°25' E 139°43'5 9.6
2018-Feb-21 22:00N 35°28' E 139°48'5 9.4
2018-Feb-21 21:29N 35°31' E 139°53'5 9.5
2018-Feb-21 21:01N 35°32' E 139°58'5 9.4
2018-Feb-21 20:30N 35°33' E 140°04'2 3.5
2018-Feb-21 20:01N 35°33' E 140°06'0 0.0
2018-Feb-21 19:30N 35°33' E 140°06'0 0.0
2018-Feb-21 19:00N 35°33' E 140°06'0 0.0
2018-Feb-21 18:29N 35°33' E 140°06'0 0.0
2018-Feb-21 17:59N 35°33' E 140°06'0 0.0
2018-Feb-21 17:29N 35°33' E 140°06'0 0.0
2018-Feb-21 16:56N 35°33' E 140°06'0 0.0
2018-Feb-21 16:29N 35°33' E 140°06'0 0.0
2018-Feb-21 15:59N 35°33' E 140°06'0 0.0
2018-Feb-21 15:29N 35°33' E 140°06'0 0.0
2018-Feb-21 14:59N 35°33' E 140°06'0 0.0
2018-Feb-21 14:29N 35°33' E 140°06'0 0.0
2018-Feb-21 13:59N 35°33' E 140°06'0 0.0
2018-Feb-21 13:29N 35°33' E 140°06'0 0.0
2018-Feb-21 12:59N 35°33' E 140°06'0 0.0
2018-Feb-21 12:29N 35°33' E 140°06'0 0.0
2018-Feb-21 11:59N 35°33' E 140°06'0 0.2
2018-Feb-21 11:30N 35°33' E 140°06'4 8.3
2018-Feb-21 11:00N 35°33' E 140°01'5 9.8
2018-Feb-21 10:30N 35°30' E 139°56'5 9.8
2018-Feb-21 10:00N 35°28' E 139°51'5 9.9
2018-Feb-21 09:30N 35°25' E 139°45'5 9.2
2018-Feb-21 09:00N 35°23' E 139°40'1 2.5
2018-Feb-21 08:28N 35°23' E 139°39'0 0.0
2018-Feb-21 07:55N 35°23' E 139°39'0 0.0
2018-Feb-21 07:28N 35°23' E 139°39'0 0.0
2018-Feb-21 07:01N 35°23' E 139°39'0 0.0
2018-Feb-21 06:31N 35°23' E 139°39'0 0.0
2018-Feb-21 06:00N 35°23' E 139°39'0 0.0
2018-Feb-21 05:30N 35°23' E 139°39'0 0.0
2018-Feb-21 05:01N 35°23' E 139°39'0 0.0
2018-Feb-21 04:30N 35°23' E 139°39'0 0.0
2018-Feb-21 04:00N 35°23' E 139°39'0 0.0
2018-Feb-21 03:30N 35°23' E 139°39'0 0.0
2018-Feb-21 03:00N 35°23' E 139°39'0 0.0
2018-Feb-21 02:30N 35°23' E 139°39'0 0.0
2018-Feb-21 02:00N 35°23' E 139°39'0 0.0
2018-Feb-21 01:27N 35°23' E 139°39'0 0.0
2018-Feb-21 01:00N 35°23' E 139°39'0 0.0
2018-Feb-21 00:30N 35°23' E 139°39'0 0.0
2018-Feb-21 00:00N 35°23' E 139°39'0 0.0
2018-Feb-20 23:30N 35°23' E 139°39'0 0.5
2018-Feb-20 23:00N 35°23' E 139°39'4 8.5
2018-Feb-20 22:30N 35°25' E 139°44'5 9.7
2018-Feb-20 22:00N 35°28' E 139°49'5 9.6
2018-Feb-20 21:31N 35°31' E 139°53'5 9.6
2018-Feb-20 21:00N 35°32' E 139°59'5 9.3
2018-Feb-20 20:30N 35°33' E 140°04'2 3.5
2018-Feb-20 20:00N 35°33' E 140°06'0 0.0
2018-Feb-20 19:30N 35°33' E 140°06'0 0.0
2018-Feb-20 19:00N 35°33' E 140°06'0 0.0
2018-Feb-20 18:27N 35°33' E 140°06'0 0.0
2018-Feb-20 17:57N 35°33' E 140°06'0 0.0
2018-Feb-20 17:30N 35°33' E 140°06'0 0.0
2018-Feb-20 17:00N 35°33' E 140°06'0 0.0
2018-Feb-20 16:30N 35°33' E 140°06'0 0.0
2018-Feb-20 15:59N 35°33' E 140°06'0 0.0
2018-Feb-20 15:26N 35°33' E 140°06'0 0.0
2018-Feb-20 14:56N 35°33' E 140°06'0 0.0
2018-Feb-20 14:29N 35°33' E 140°06'0 0.0
2018-Feb-20 13:59N 35°33' E 140°06'0 0.0
2018-Feb-20 13:29N 35°33' E 140°06'0 0.0
2018-Feb-20 12:59N 35°33' E 140°06'0 0.0
2018-Feb-20 12:29N 35°33' E 140°06'0 0.0
2018-Feb-20 11:50N 35°33' E 140°06'0 0.0
2018-Feb-20 11:29N 35°33' E 140°06'0 0.0
2018-Feb-20 10:56N 35°33' E 140°06'1 3.1
2018-Feb-20 10:30N 35°33' E 140°05'5 9.4
2018-Feb-20 10:00N 35°32' E 139°59'510.0
2018-Feb-20 09:30N 35°29' E 139°54'510.2
2018-Feb-20 09:00N 35°27' E 139°48'510.2
2018-Feb-20 08:30N 35°24' E 139°43'4 7.3
2018-Feb-20 08:00N 35°23' E 139°39'0 0.0
2018-Feb-20 07:28N 35°23' E 139°39'0 0.0
2018-Feb-20 06:58N 35°23' E 139°39'0 0.0
2018-Feb-20 06:28N 35°23' E 139°39'0 0.0
2018-Feb-20 05:58N 35°23' E 139°39'0 0.0
2018-Feb-20 05:28N 35°23' E 139°39'0 0.0
2018-Feb-20 04:58N 35°23' E 139°39'0 0.0
2018-Feb-20 04:28N 35°23' E 139°39'0 0.0
2018-Feb-20 03:58N 35°23' E 139°39'0 0.0
2018-Feb-20 03:28N 35°23' E 139°39'0 0.0
2018-Feb-20 02:58N 35°23' E 139°39'0 0.0
2018-Feb-20 02:28N 35°23' E 139°39'0 0.0
2018-Feb-20 01:58N 35°23' E 139°39'0 0.0
2018-Feb-20 01:28N 35°23' E 139°39'0 0.0
2018-Feb-20 00:58N 35°23' E 139°39'0 0.0
2018-Feb-20 00:28N 35°23' E 139°39'0 0.0
2018-Feb-19 23:58N 35°23' E 139°39'0 0.0
2018-Feb-19 23:28N 35°23' E 139°39'0 0.5
2018-Feb-19 23:00N 35°23' E 139°39'4 8.0
2018-Feb-19 22:30N 35°25' E 139°43'5 9.6
2018-Feb-19 22:00N 35°27' E 139°48'5 9.6
2018-Feb-19 21:30N 35°31' E 139°53'5 9.6
2018-Feb-19 21:00N 35°32' E 139°58'5 9.4
2018-Feb-19 20:30N 35°33' E 140°04'2 3.7
2018-Feb-19 20:00N 35°33' E 140°06'0 0.0
2018-Feb-19 19:30N 35°33' E 140°06'0 0.0
2018-Feb-19 18:59N 35°33' E 140°06'0 0.0
2018-Feb-19 18:29N 35°33' E 140°06'0 0.0
2018-Feb-19 17:59N 35°33' E 140°06'0 0.0
2018-Feb-19 17:29N 35°33' E 140°06'0 0.0
2018-Feb-19 16:59N 35°33' E 140°06'0 0.0
2018-Feb-19 16:29N 35°33' E 140°06'0 0.0
2018-Feb-19 15:59N 35°33' E 140°06'0 0.0
2018-Feb-19 15:29N 35°33' E 140°06'0 0.0
2018-Feb-19 14:59N 35°33' E 140°06'0 0.0
2018-Feb-19 14:17N 35°33' E 140°06'0 0.0
2018-Feb-19 13:59N 35°33' E 140°06'0 0.0
2018-Feb-19 13:29N 35°33' E 140°06'0 0.0
2018-Feb-19 12:59N 35°33' E 140°06'0 0.0
2018-Feb-19 12:29N 35°33' E 140°06'0 0.0
2018-Feb-19 11:59N 35°33' E 140°06'0 0.0
2018-Feb-19 11:29N 35°33' E 140°06'0 0.5
2018-Feb-19 11:00N 35°33' E 140°06'5 9.0
2018-Feb-19 10:30N 35°32' E 140°00'5 9.8
2018-Feb-19 10:00N 35°30' E 139°55'5 9.9
2018-Feb-19 09:30N 35°27' E 139°50'510.2
2018-Feb-19 09:01N 35°25' E 139°45'5 9.6
2018-Feb-19 08:30N 35°24' E 139°39'0 0.8
2018-Feb-19 07:59N 35°23' E 139°39'0 0.0
2018-Feb-19 07:29N 35°23' E 139°39'0 0.0
2018-Feb-19 06:59N 35°23' E 139°39'0 0.0
2018-Feb-19 06:29N 35°23' E 139°39'0 0.0
2018-Feb-19 05:59N 35°23' E 139°39'0 0.0
2018-Feb-19 05:29N 35°23' E 139°39'0 0.0
2018-Feb-19 04:59N 35°23' E 139°39'0 0.0
2018-Feb-19 04:29N 35°23' E 139°39'0 0.0
2018-Feb-19 03:59N 35°23' E 139°39'0 0.0
2018-Feb-19 03:29N 35°23' E 139°39'0 0.0
2018-Feb-19 02:59N 35°23' E 139°39'0 0.0
2018-Feb-19 02:29N 35°23' E 139°39'0 0.0
2018-Feb-19 01:59N 35°23' E 139°39'0 0.0
2018-Feb-19 01:29N 35°23' E 139°39'0 0.0
2018-Feb-19 00:59N 35°23' E 139°39'0 0.0
2018-Feb-19 00:29N 35°23' E 139°39'0 0.0
2018-Feb-18 23:59N 35°23' E 139°39'0 0.0
2018-Feb-18 23:29N 35°23' E 139°39'0 1.0
2018-Feb-18 23:00N 35°24' E 139°39'4 8.5
2018-Feb-18 22:30N 35°25' E 139°44'5 9.6
2018-Feb-18 22:00N 35°28' E 139°49'5 9.3
2018-Feb-18 21:31N 35°31' E 139°53'5 9.3
2018-Feb-18 21:00N 35°32' E 139°59'5 9.3
2018-Feb-18 20:30N 35°33' E 140°04'2 3.2
2018-Feb-18 20:00N 35°33' E 140°06'0 0.0
2018-Feb-18 19:30N 35°33' E 140°06'0 0.0
2018-Feb-18 19:00N 35°33' E 140°06'0 0.0
2018-Feb-18 18:29N 35°33' E 140°06'0 0.0
2018-Feb-18 17:59N 35°33' E 140°06'0 0.0
2018-Feb-18 17:29N 35°33' E 140°06'0 0.0
2018-Feb-18 16:59N 35°33' E 140°06'0 0.0
2018-Feb-18 16:29N 35°33' E 140°06'0 0.0
2018-Feb-18 15:53N 35°33' E 140°06'0 0.0
2018-Feb-18 15:29N 35°33' E 140°06'0 0.0
2018-Feb-18 14:59N 35°33' E 140°06'0 0.0
2018-Feb-18 14:29N 35°33' E 140°06'0 0.0
2018-Feb-18 13:59N 35°33' E 140°06'0 0.0
2018-Feb-18 13:29N 35°33' E 140°06'0 0.0
2018-Feb-18 12:59N 35°33' E 140°06'0 0.0
2018-Feb-18 12:29N 35°33' E 140°06'0 0.0
2018-Feb-18 11:59N 35°33' E 140°06'0 0.0
2018-Feb-18 11:29N 35°33' E 140°06'0 0.0
2018-Feb-18 10:59N 35°33' E 140°06'0 0.0
2018-Feb-18 10:29N 35°33' E 140°06'0 0.0
2018-Feb-18 09:59N 35°33' E 140°06'0 0.0
2018-Feb-18 09:29N 35°33' E 140°06'0 0.0
2018-Feb-18 08:59N 35°33' E 140°06'0 0.0
2018-Feb-18 08:29N 35°33' E 140°06'0 0.0
2018-Feb-18 07:59N 35°33' E 140°06'0 0.0
2018-Feb-18 07:29N 35°33' E 140°06'0 0.0
2018-Feb-18 06:59N 35°33' E 140°06'0 0.0
2018-Feb-18 06:29N 35°33' E 140°06'1 1.1
2018-Feb-18 06:00N 35°33' E 140°06'5 9.6
2018-Feb-18 05:30N 35°32' E 139°60'510.1
2018-Feb-18 05:00N 35°29' E 139°55'5 9.9
2018-Feb-18 04:30N 35°27' E 139°49'4 9.1
2018-Feb-18 04:01N 35°25' E 139°44'5 9.4
2018-Feb-18 03:31N 35°24' E 139°39'0 0.7
2018-Feb-18 03:00N 35°23' E 139°39'0 0.0
2018-Feb-18 02:31N 35°23' E 139°39'0 0.0
2018-Feb-18 02:01N 35°23' E 139°39'0 0.0
2018-Feb-18 01:31N 35°23' E 139°39'0 0.0
2018-Feb-18 01:01N 35°23' E 139°39'0 0.0
2018-Feb-18 00:31N 35°23' E 139°39'0 0.0
2018-Feb-18 00:00N 35°23' E 139°39'0 0.0
2018-Feb-17 23:30N 35°23' E 139°39'0 0.0
2018-Feb-17 22:59N 35°23' E 139°39'0 0.0
2018-Feb-17 22:30N 35°23' E 139°39'0 0.0
2018-Feb-17 22:01N 35°23' E 139°39'0 0.0
2018-Feb-17 21:31N 35°23' E 139°39'0 0.0
2018-Feb-17 21:00N 35°23' E 139°39'0 0.0
2018-Feb-17 20:30N 35°23' E 139°39'0 0.0
2018-Feb-17 20:01N 35°23' E 139°39'0 0.0
2018-Feb-17 19:31N 35°23' E 139°39'0 0.0
2018-Feb-17 19:01N 35°23' E 139°39'0 0.0
2018-Feb-17 18:30N 35°23' E 139°39'0 0.0
2018-Feb-17 18:00N 35°23' E 139°39'0 0.0
2018-Feb-17 17:31N 35°23' E 139°39'0 0.0
2018-Feb-17 17:01N 35°23' E 139°39'0 0.0
2018-Feb-17 16:31N 35°23' E 139°39'0 0.0
2018-Feb-17 16:00N 35°23' E 139°39'0 0.0
2018-Feb-17 15:31N 35°23' E 139°39'0 0.0
2018-Feb-17 15:01N 35°23' E 139°39'0 0.0
2018-Feb-17 14:31N 35°23' E 139°39'0 0.0
2018-Feb-17 14:01N 35°23' E 139°39'0 0.0
2018-Feb-17 13:31N 35°23' E 139°39'0 0.0
2018-Feb-17 13:01N 35°23' E 139°39'0 0.0
2018-Feb-17 12:31N 35°23' E 139°39'0 0.0
2018-Feb-17 12:01N 35°23' E 139°39'0 0.0
2018-Feb-17 11:29N 35°23' E 139°39'0 0.0
2018-Feb-17 11:00N 35°23' E 139°39'0 0.0
2018-Feb-17 10:30N 35°23' E 139°39'0 0.0
2018-Feb-17 10:00N 35°23' E 139°39'0 0.0
2018-Feb-17 09:31N 35°23' E 139°39'0 0.0
2018-Feb-17 09:00N 35°23' E 139°39'0 0.0
2018-Feb-17 08:31N 35°23' E 139°39'0 0.0
2018-Feb-17 08:00N 35°23' E 139°39'0 0.0
2018-Feb-17 07:30N 35°23' E 139°39'0 0.0
2018-Feb-17 07:01N 35°23' E 139°39'0 0.0
2018-Feb-17 06:31N 35°23' E 139°39'0 0.0
2018-Feb-17 06:01N 35°23' E 139°39'0 0.0
2018-Feb-17 05:30N 35°23' E 139°39'0 0.0
2018-Feb-17 05:01N 35°23' E 139°39'0 0.0
2018-Feb-17 04:30N 35°23' E 139°39'0 0.0
2018-Feb-17 04:00N 35°23' E 139°39'0 0.0
2018-Feb-17 03:30N 35°23' E 139°39'0 0.0
2018-Feb-17 03:00N 35°23' E 139°39'0 0.0
2018-Feb-17 02:30N 35°23' E 139°39'0 0.0
2018-Feb-17 02:00N 35°23' E 139°39'0 0.0
2018-Feb-17 01:30N 35°23' E 139°39'0 0.0
2018-Feb-17 01:00N 35°23' E 139°39'0 0.0
2018-Feb-17 00:31N 35°23' E 139°39'0 0.0
2018-Feb-17 00:01N 35°23' E 139°39'0 0.0
2018-Feb-16 23:30N 35°23' E 139°39'0 0.0
2018-Feb-16 23:01N 35°23' E 139°39'0 0.0
2018-Feb-16 22:30N 35°23' E 139°39'0 0.0
2018-Feb-16 22:01N 35°23' E 139°39'0 0.0
2018-Feb-16 21:30N 35°23' E 139°39'0 0.0
2018-Feb-16 21:01N 35°23' E 139°39'0 0.0
2018-Feb-16 20:31N 35°23' E 139°39'0 0.0
2018-Feb-16 20:01N 35°23' E 139°39'0 0.0
2018-Feb-16 19:30N 35°23' E 139°39'0 0.0
2018-Feb-16 19:00N 35°23' E 139°39'0 0.0
2018-Feb-16 18:31N 35°23' E 139°39'0 0.0
2018-Feb-16 18:01N 35°23' E 139°39'0 0.0
2018-Feb-16 17:31N 35°23' E 139°39'0 0.0
2018-Feb-16 17:00N 35°23' E 139°39'0 0.0
2018-Feb-16 16:30N 35°23' E 139°39'0 0.0
2018-Feb-16 16:01N 35°23' E 139°39'0 0.0
2018-Feb-16 15:31N 35°23' E 139°39'0 0.0
2018-Feb-16 15:01N 35°23' E 139°39'0 0.0
2018-Feb-16 14:31N 35°23' E 139°39'0 0.0
2018-Feb-16 14:00N 35°23' E 139°39'0 0.0
2018-Feb-16 13:30N 35°23' E 139°39'0 0.0
2018-Feb-16 13:00N 35°23' E 139°39'0 0.0
2018-Feb-16 12:30N 35°23' E 139°39'0 0.0
2018-Feb-16 12:00N 35°23' E 139°39'0 0.0
2018-Feb-16 11:31N 35°23' E 139°39'0 0.0
2018-Feb-16 11:00N 35°23' E 139°39'0 0.0
2018-Feb-16 10:31N 35°23' E 139°39'0 0.0
2018-Feb-16 10:00N 35°23' E 139°39'0 0.0
2018-Feb-16 09:31N 35°23' E 139°39'0 0.0
2018-Feb-16 09:01N 35°23' E 139°39'0 0.0
2018-Feb-16 08:30N 35°23' E 139°39'0 0.0
2018-Feb-16 08:00N 35°23' E 139°39'0 0.0
2018-Feb-16 07:30N 35°23' E 139°39'0 0.0
2018-Feb-16 07:01N 35°23' E 139°39'0 0.0
2018-Feb-16 06:30N 35°23' E 139°39'0 0.0
2018-Feb-16 06:01N 35°23' E 139°39'0 0.0
2018-Feb-16 05:31N 35°23' E 139°39'0 0.0
2018-Feb-16 05:00N 35°23' E 139°39'0 0.0
2018-Feb-16 04:30N 35°23' E 139°39'0 0.0
2018-Feb-16 04:01N 35°23' E 139°39'0 0.0
2018-Feb-16 03:31N 35°23' E 139°39'0 0.0
2018-Feb-16 03:00N 35°23' E 139°39'0 0.0
2018-Feb-16 02:31N 35°23' E 139°39'0 0.0
2018-Feb-16 02:00N 35°23' E 139°39'0 0.0
2018-Feb-16 01:31N 35°23' E 139°39'0 0.0
2018-Feb-16 01:00N 35°23' E 139°39'0 0.0
2018-Feb-16 00:31N 35°23' E 139°39'0 0.0
2018-Feb-16 00:00N 35°23' E 139°39'0 0.0
2018-Feb-15 23:30N 35°23' E 139°39'0 0.3
2018-Feb-15 23:01N 35°23' E 139°39'4 8.7
2018-Feb-15 22:31N 35°25' E 139°44'510.0
2018-Feb-15 22:01N 35°28' E 139°49'5 9.6
2018-Feb-15 21:31N 35°31' E 139°53'5 9.7
2018-Feb-15 21:00N 35°32' E 139°59'5 9.4
2018-Feb-15 20:30N 35°33' E 140°05'1 2.7
2018-Feb-15 20:00N 35°33' E 140°06'0 0.0
2018-Feb-15 19:30N 35°33' E 140°06'0 0.0
2018-Feb-15 18:59N 35°33' E 140°06'0 0.0
2018-Feb-15 18:29N 35°33' E 140°06'0 0.0
2018-Feb-15 17:59N 35°33' E 140°06'0 0.0
2018-Feb-15 17:29N 35°33' E 140°06'0 0.0
2018-Feb-15 16:59N 35°33' E 140°06'0 0.0
2018-Feb-15 16:29N 35°33' E 140°06'0 0.0
2018-Feb-15 15:59N 35°33' E 140°06'0 0.0
2018-Feb-15 15:29N 35°33' E 140°06'0 0.0
2018-Feb-15 14:59N 35°33' E 140°06'0 0.0
2018-Feb-15 14:29N 35°33' E 140°06'0 0.0
2018-Feb-15 13:59N 35°33' E 140°06'0 0.0
2018-Feb-15 13:29N 35°33' E 140°06'0 0.0
2018-Feb-15 12:59N 35°33' E 140°06'0 0.0
2018-Feb-15 12:29N 35°33' E 140°06'0 0.0
2018-Feb-15 11:59N 35°33' E 140°06'0 0.0
2018-Feb-15 11:29N 35°33' E 140°06'0 0.0
2018-Feb-15 10:59N 35°33' E 140°06'0 0.0
2018-Feb-15 10:29N 35°33' E 140°06'0 0.0
2018-Feb-15 09:59N 35°33' E 140°06'0 0.0
2018-Feb-15 09:29N 35°33' E 140°06'0 0.0
2018-Feb-15 08:59N 35°33' E 140°06'0 0.0
2018-Feb-15 08:29N 35°33' E 140°06'0 0.0
2018-Feb-15 07:59N 35°33' E 140°06'0 0.0
2018-Feb-15 07:29N 35°33' E 140°06'0 0.0
2018-Feb-15 06:59N 35°33' E 140°06'0 0.0
2018-Feb-15 06:20N 35°33' E 140°06'1 1.8
2018-Feb-15 06:00N 35°33' E 140°05'5 9.3
2018-Feb-15 05:30N 35°32' E 139°60'5 9.6
2018-Feb-15 05:00N 35°30' E 139°55'5 9.9
2018-Feb-15 04:30N 35°27' E 139°50'5 9.8
2018-Feb-15 04:00N 35°25' E 139°44'5 9.2
2018-Feb-15 03:30N 35°24' E 139°39'0 0.9
2018-Feb-15 03:00N 35°23' E 139°39'0 0.0
2018-Feb-15 02:26N 35°23' E 139°39'0 0.0
2018-Feb-15 01:56N 35°23' E 139°39'0 0.0
2018-Feb-15 01:29N 35°23' E 139°39'0 0.0
2018-Feb-15 00:59N 35°23' E 139°39'0 0.0
2018-Feb-15 00:29N 35°23' E 139°39'0 0.0
2018-Feb-14 23:59N 35°23' E 139°39'0 0.0
2018-Feb-14 23:29N 35°23' E 139°39'0 0.0
2018-Feb-14 22:59N 35°23' E 139°39'0 0.0
2018-Feb-14 22:29N 35°23' E 139°39'0 0.0
2018-Feb-14 21:59N 35°23' E 139°39'0 0.0
2018-Feb-14 21:29N 35°23' E 139°39'0 0.0
2018-Feb-14 20:59N 35°23' E 139°39'0 0.0
2018-Feb-14 20:29N 35°23' E 139°39'0 0.0
2018-Feb-14 19:59N 35°23' E 139°39'0 0.0
2018-Feb-14 19:29N 35°23' E 139°39'0 0.0
2018-Feb-14 18:58N 35°23' E 139°39'0 0.0
2018-Feb-14 18:28N 35°23' E 139°39'0 0.0
2018-Feb-14 17:58N 35°23' E 139°39'0 0.0
2018-Feb-14 17:29N 35°23' E 139°39'0 0.0
2018-Feb-14 16:58N 35°23' E 139°39'0 0.0
2018-Feb-14 16:28N 35°23' E 139°39'0 0.0
2018-Feb-14 15:58N 35°23' E 139°39'0 0.0
2018-Feb-14 15:28N 35°23' E 139°39'0 0.0
2018-Feb-14 14:58N 35°23' E 139°39'0 0.0
2018-Feb-14 14:28N 35°23' E 139°39'0 0.0
2018-Feb-14 13:58N 35°23' E 139°39'0 0.0
2018-Feb-14 13:28N 35°23' E 139°39'0 0.0
2018-Feb-14 12:58N 35°23' E 139°39'0 0.0
2018-Feb-14 12:28N 35°23' E 139°39'0 0.0
2018-Feb-14 11:58N 35°23' E 139°39'0 0.0
2018-Feb-14 11:25N 35°23' E 139°39'0 0.0
2018-Feb-14 10:58N 35°23' E 139°39'0 0.0
2018-Feb-14 10:28N 35°23' E 139°39'0 0.0
2018-Feb-14 09:58N 35°23' E 139°39'0 0.0
2018-Feb-14 09:28N 35°23' E 139°39'0 0.0
2018-Feb-14 08:58N 35°23' E 139°39'0 0.0
2018-Feb-14 08:28N 35°23' E 139°39'0 0.0
2018-Feb-14 07:58N 35°23' E 139°39'0 0.0
2018-Feb-14 07:28N 35°23' E 139°39'0 0.0
2018-Feb-14 06:58N 35°23' E 139°39'0 0.0
2018-Feb-14 06:28N 35°23' E 139°39'0 0.0
2018-Feb-14 05:58N 35°23' E 139°39'0 0.0
2018-Feb-14 05:25N 35°23' E 139°39'0 0.0
2018-Feb-14 04:58N 35°23' E 139°39'0 0.0
2018-Feb-14 04:28N 35°23' E 139°39'0 0.0
2018-Feb-14 03:58N 35°23' E 139°39'0 0.0
2018-Feb-14 03:28N 35°23' E 139°39'0 0.0
2018-Feb-14 02:58N 35°23' E 139°39'0 0.0
2018-Feb-14 02:28N 35°23' E 139°39'0 0.0
2018-Feb-14 01:55N 35°23' E 139°39'0 0.0
2018-Feb-14 01:28N 35°23' E 139°39'0 0.0
2018-Feb-14 00:58N 35°23' E 139°39'0 0.0
2018-Feb-14 00:28N 35°23' E 139°39'0 0.0
2018-Feb-13 23:58N 35°23' E 139°39'0 0.0
2018-Feb-13 23:28N 35°23' E 139°39'0 0.1
2018-Feb-13 23:01N 35°23' E 139°39'4 7.6
2018-Feb-13 22:30N 35°25' E 139°43'5 9.9
2018-Feb-13 22:00N 35°27' E 139°48'5 9.8
2018-Feb-13 21:30N 35°31' E 139°53'5 9.8
2018-Feb-13 21:01N 35°32' E 139°58'5 9.4
2018-Feb-13 20:30N 35°33' E 140°04'2 3.7
2018-Feb-13 19:59N 35°33' E 140°06'0 0.0
2018-Feb-13 19:31N 35°33' E 140°06'0 0.0
2018-Feb-13 19:01N 35°33' E 140°06'0 0.0
2018-Feb-13 18:30N 35°33' E 140°06'0 0.0
2018-Feb-13 18:00N 35°33' E 140°06'0 0.0
2018-Feb-13 17:30N 35°33' E 140°06'0 0.0
2018-Feb-13 17:00N 35°33' E 140°06'0 0.0
2018-Feb-13 16:30N 35°33' E 140°06'0 0.0
2018-Feb-13 16:00N 35°33' E 140°06'0 0.0
2018-Feb-13 15:30N 35°33' E 140°06'0 0.0
2018-Feb-13 15:00N 35°33' E 140°06'0 0.0
2018-Feb-13 14:30N 35°33' E 140°06'0 0.0
2018-Feb-13 14:00N 35°33' E 140°06'0 0.0
2018-Feb-13 13:30N 35°33' E 140°06'0 0.0
2018-Feb-13 13:00N 35°33' E 140°06'0 0.0
2018-Feb-13 12:30N 35°33' E 140°06'0 0.0
2018-Feb-13 11:59N 35°33' E 140°06'0 0.0
2018-Feb-13 11:29N 35°33' E 140°06'0 0.0
2018-Feb-13 11:00N 35°33' E 140°06'4 8.1
2018-Feb-13 10:30N 35°33' E 140°01'5 9.6
2018-Feb-13 10:00N 35°30' E 139°56'5 9.6
2018-Feb-13 09:30N 35°28' E 139°51'510.1
2018-Feb-13 09:00N 35°25' E 139°46'5 9.5
2018-Feb-13 08:30N 35°23' E 139°40'2 2.9
2018-Feb-13 07:58N 35°23' E 139°39'0 0.0
2018-Feb-13 07:28N 35°23' E 139°39'0 0.0
2018-Feb-13 06:58N 35°23' E 139°39'0 0.0
2018-Feb-13 06:28N 35°23' E 139°39'0 0.0
2018-Feb-13 05:58N 35°23' E 139°39'0 0.0
2018-Feb-13 05:28N 35°23' E 139°39'0 0.0
2018-Feb-13 04:58N 35°23' E 139°39'0 0.0
2018-Feb-13 04:28N 35°23' E 139°39'0 0.0
2018-Feb-13 03:55N 35°23' E 139°39'0 0.0
2018-Feb-13 03:28N 35°23' E 139°39'  
Track history (hours):
 
Tides and Currents Weather Stations Pressure Air Temp Water Temp Dewpoint Dewpoint Depression Visibility Wind Speed Wind Dir Waves Ship Positions

Jfe Tokyo Bay

Last reported at 2018-Feb-23 02:59 UTC. Time now 2018-Feb-23 03:16 UTC.
Position N 35°23' E 139°39'.

Length 70 m; draft 3.9 m.

Type: Cargo ship. MMSI: 431501791.

Date/timePositionNaut miles runAvg speedWind from/ knotsBaromVisibWave heightAir tempDewpointWater temp
2018-Feb-23 02:59N 35°23' E 139°39'0 0.0
2018-Feb-23 02:29N 35°23' E 139°39'0 0.0
2018-Feb-23 01:59N 35°23' E 139°39'0 0.0
2018-Feb-23 01:26N 35°23' E 139°39'0 0.0
2018-Feb-23 00:59N 35°23' E 139°39'0 0.0
2018-Feb-23 00:29N 35°23' E 139°39'0 0.0
2018-Feb-22 23:59N 35°23' E 139°39'0 0.0
2018-Feb-22 23:29N 35°23' E 139°39'0 0.7
2018-Feb-22 23:00N 35°24' E 139°39'4 7.9
2018-Feb-22 22:30N 35°25' E 139°43'5 9.5
2018-Feb-22 22:00N 35°28' E 139°48'5 9.6
2018-Feb-22 21:30N 35°31' E 139°53'5 9.5
2018-Feb-22 21:00N 35°32' E 139°58'5 9.5
2018-Feb-22 20:30N 35°33' E 140°04'2 3.6
2018-Feb-22 20:00N 35°33' E 140°06'0 0.0
2018-Feb-22 19:16N 35°33' E 140°06'0 0.0
2018-Feb-22 18:58N 35°33' E 140°06'0 0.0
2018-Feb-22 18:28N 35°33' E 140°06'0 0.0
2018-Feb-22 17:58N 35°33' E 140°06'0 0.0
2018-Feb-22 17:28N 35°33' E 140°06'0 0.0
2018-Feb-22 16:58N 35°33' E 140°06'0 0.0
2018-Feb-22 16:28N 35°33' E 140°06'0 0.0
2018-Feb-22 15:58N 35°33' E 140°06'0 0.0
2018-Feb-22 15:28N 35°33' E 140°06'0 0.0
2018-Feb-22 14:58N 35°33' E 140°06'0 0.0
2018-Feb-22 14:28N 35°33' E 140°06'0 0.0
2018-Feb-22 13:58N 35°33' E 140°06'0 0.0
2018-Feb-22 13:28N 35°33' E 140°06'0 0.0
2018-Feb-22 12:58N 35°33' E 140°06'0 0.0
2018-Feb-22 12:28N 35°33' E 140°06'0 0.0
2018-Feb-22 11:58N 35°33' E 140°06'3 6.5
2018-Feb-22 11:30N 35°33' E 140°03'5 9.8
2018-Feb-22 11:01N 35°31' E 139°57'5 9.6
2018-Feb-22 10:31N 35°28' E 139°52'5 9.7
2018-Feb-22 10:01N 35°26' E 139°47'5 9.7
2018-Feb-22 09:31N 35°24' E 139°42'3 4.6
2018-Feb-22 08:56N 35°23' E 139°39'0 0.0
2018-Feb-22 08:29N 35°23' E 139°39'0 0.0
2018-Feb-22 07:59N 35°23' E 139°39'0 0.0
2018-Feb-22 07:29N 35°23' E 139°39'0 0.0
2018-Feb-22 06:59N 35°23' E 139°39'0 0.0
2018-Feb-22 06:29N 35°23' E 139°39'0 0.0
2018-Feb-22 05:59N 35°23' E 139°39'0 0.0
2018-Feb-22 05:29N 35°23' E 139°39'0 0.0
2018-Feb-22 04:56N 35°23' E 139°39'0 0.0
2018-Feb-22 04:29N 35°23' E 139°39'0 0.0
2018-Feb-22 03:59N 35°23' E 139°39'0 0.0
2018-Feb-22 03:29N 35°23' E 139°39'0 0.0
2018-Feb-22 02:59N 35°23' E 139°39'0 0.0
2018-Feb-22 02:29N 35°23' E 139°39'0 0.0
2018-Feb-22 01:59N 35°23' E 139°39'0 0.0
2018-Feb-22 01:29N 35°23' E 139°39'0 0.0
2018-Feb-22 00:59N 35°23' E 139°39'0 0.0
2018-Feb-22 00:29N 35°23' E 139°39'0 0.0
2018-Feb-21 23:59N 35°23' E 139°39'0 0.0
2018-Feb-21 23:29N 35°23' E 139°39'0 0.8
2018-Feb-21 23:00N 35°24' E 139°39'4 8.1
2018-Feb-21 22:30N 35°25' E 139°43'5 9.6
2018-Feb-21 22:00N 35°28' E 139°48'5 9.4
2018-Feb-21 21:29N 35°31' E 139°53'5 9.5
2018-Feb-21 21:01N 35°32' E 139°58'5 9.4
2018-Feb-21 20:30N 35°33' E 140°04'2 3.5
2018-Feb-21 20:01N 35°33' E 140°06'0 0.0
2018-Feb-21 19:30N 35°33' E 140°06'0 0.0
2018-Feb-21 19:00N 35°33' E 140°06'0 0.0
2018-Feb-21 18:29N 35°33' E 140°06'0 0.0
2018-Feb-21 17:59N 35°33' E 140°06'0 0.0
2018-Feb-21 17:29N 35°33' E 140°06'0 0.0
2018-Feb-21 16:56N 35°33' E 140°06'0 0.0
2018-Feb-21 16:29N 35°33' E 140°06'0 0.0
2018-Feb-21 15:59N 35°33' E 140°06'0 0.0
2018-Feb-21 15:29N 35°33' E 140°06'0 0.0
2018-Feb-21 14:59N 35°33' E 140°06'0 0.0
2018-Feb-21 14:29N 35°33' E 140°06'0 0.0
2018-Feb-21 13:59N 35°33' E 140°06'0 0.0
2018-Feb-21 13:29N 35°33' E 140°06'0 0.0
2018-Feb-21 12:59N 35°33' E 140°06'0 0.0
2018-Feb-21 12:29N 35°33' E 140°06'0 0.0
2018-Feb-21 11:59N 35°33' E 140°06'0 0.2
2018-Feb-21 11:30N 35°33' E 140°06'4 8.3
2018-Feb-21 11:00N 35°33' E 140°01'5 9.8
2018-Feb-21 10:30N 35°30' E 139°56'5 9.8
2018-Feb-21 10:00N 35°28' E 139°51'5 9.9
2018-Feb-21 09:30N 35°25' E 139°45'5 9.2
2018-Feb-21 09:00N 35°23' E 139°40'1 2.5
2018-Feb-21 08:28N 35°23' E 139°39'0 0.0
2018-Feb-21 07:55N 35°23' E 139°39'0 0.0
2018-Feb-21 07:28N 35°23' E 139°39'0 0.0
2018-Feb-21 07:01N 35°23' E 139°39'0 0.0
2018-Feb-21 06:31N 35°23' E 139°39'0 0.0
2018-Feb-21 06:00N 35°23' E 139°39'0 0.0
2018-Feb-21 05:30N 35°23' E 139°39'0 0.0
2018-Feb-21 05:01N 35°23' E 139°39'0 0.0
2018-Feb-21 04:30N 35°23' E 139°39'0 0.0
2018-Feb-21 04:00N 35°23' E 139°39'0 0.0
2018-Feb-21 03:30N 35°23' E 139°39'0 0.0
2018-Feb-21 03:00N 35°23' E 139°39'0 0.0
2018-Feb-21 02:30N 35°23' E 139°39'0 0.0
2018-Feb-21 02:00N 35°23' E 139°39'0 0.0
2018-Feb-21 01:27N 35°23' E 139°39'0 0.0
2018-Feb-21 01:00N 35°23' E 139°39'0 0.0
2018-Feb-21 00:30N 35°23' E 139°39'0 0.0
2018-Feb-21 00:00N 35°23' E 139°39'0 0.0
2018-Feb-20 23:30N 35°23' E 139°39'0 0.5
2018-Feb-20 23:00N 35°23' E 139°39'4 8.5
2018-Feb-20 22:30N 35°25' E 139°44'5 9.7
2018-Feb-20 22:00N 35°28' E 139°49'5 9.6
2018-Feb-20 21:31N 35°31' E 139°53'5 9.6
2018-Feb-20 21:00N 35°32' E 139°59'5 9.3
2018-Feb-20 20:30N 35°33' E 140°04'2 3.5
2018-Feb-20 20:00N 35°33' E 140°06'0 0.0
2018-Feb-20 19:30N 35°33' E 140°06'0 0.0
2018-Feb-20 19:00N 35°33' E 140°06'0 0.0
2018-Feb-20 18:27N 35°33' E 140°06'0 0.0
2018-Feb-20 17:57N 35°33' E 140°06'0 0.0
2018-Feb-20 17:30N 35°33' E 140°06'0 0.0
2018-Feb-20 17:00N 35°33' E 140°06'0 0.0
2018-Feb-20 16:30N 35°33' E 140°06'0 0.0
2018-Feb-20 15:59N 35°33' E 140°06'0 0.0
2018-Feb-20 15:26N 35°33' E 140°06'0 0.0
2018-Feb-20 14:56N 35°33' E 140°06'0 0.0
2018-Feb-20 14:29N 35°33' E 140°06'0 0.0
2018-Feb-20 13:59N 35°33' E 140°06'0 0.0
2018-Feb-20 13:29N 35°33' E 140°06'0 0.0
2018-Feb-20 12:59N 35°33' E 140°06'0 0.0
2018-Feb-20 12:29N 35°33' E 140°06'0 0.0
2018-Feb-20 11:50N 35°33' E 140°06'0 0.0
2018-Feb-20 11:29N 35°33' E 140°06'0 0.0
2018-Feb-20 10:56N 35°33' E 140°06'1 3.1
2018-Feb-20 10:30N 35°33' E 140°05'5 9.4
2018-Feb-20 10:00N 35°32' E 139°59'510.0
2018-Feb-20 09:30N 35°29' E 139°54'510.2
2018-Feb-20 09:00N 35°27' E 139°48'510.2
2018-Feb-20 08:30N 35°24' E 139°43'4 7.3
2018-Feb-20 08:00N 35°23' E 139°39'0 0.0
2018-Feb-20 07:28N 35°23' E 139°39'0 0.0
2018-Feb-20 06:58N 35°23' E 139°39'0 0.0
2018-Feb-20 06:28N 35°23' E 139°39'0 0.0
2018-Feb-20 05:58N 35°23' E 139°39'0 0.0
2018-Feb-20 05:28N 35°23' E 139°39'0 0.0
2018-Feb-20 04:58N 35°23' E 139°39'0 0.0
2018-Feb-20 04:28N 35°23' E 139°39'0 0.0
2018-Feb-20 03:58N 35°23' E 139°39'0 0.0
2018-Feb-20 03:28N 35°23' E 139°39'0 0.0
2018-Feb-20 02:58N 35°23' E 139°39'0 0.0
2018-Feb-20 02:28N 35°23' E 139°39'0 0.0
2018-Feb-20 01:58N 35°23' E 139°39'0 0.0
2018-Feb-20 01:28N 35°23' E 139°39'0 0.0
2018-Feb-20 00:58N 35°23' E 139°39'0 0.0
2018-Feb-20 00:28N 35°23' E 139°39'0 0.0
2018-Feb-19 23:58N 35°23' E 139°39'0 0.0
2018-Feb-19 23:28N 35°23' E 139°39'0 0.5
2018-Feb-19 23:00N 35°23' E 139°39'4 8.0
2018-Feb-19 22:30N 35°25' E 139°43'5 9.6
2018-Feb-19 22:00N 35°27' E 139°48'5 9.6
2018-Feb-19 21:30N 35°31' E 139°53'5 9.6
2018-Feb-19 21:00N 35°32' E 139°58'5 9.4
2018-Feb-19 20:30N 35°33' E 140°04'2 3.7
2018-Feb-19 20:00N 35°33' E 140°06'0 0.0
2018-Feb-19 19:30N 35°33' E 140°06'0 0.0
2018-Feb-19 18:59N 35°33' E 140°06'0 0.0
2018-Feb-19 18:29N 35°33' E 140°06'0 0.0
2018-Feb-19 17:59N 35°33' E 140°06'0 0.0
2018-Feb-19 17:29N 35°33' E 140°06'0 0.0
2018-Feb-19 16:59N 35°33' E 140°06'0 0.0
2018-Feb-19 16:29N 35°33' E 140°06'0 0.0
2018-Feb-19 15:59N 35°33' E 140°06'0 0.0
2018-Feb-19 15:29N 35°33' E 140°06'0 0.0
2018-Feb-19 14:59N 35°33' E 140°06'0 0.0
2018-Feb-19 14:17N 35°33' E 140°06'0 0.0
2018-Feb-19 13:59N 35°33' E 140°06'0 0.0
2018-Feb-19 13:29N 35°33' E 140°06'0 0.0
2018-Feb-19 12:59N 35°33' E 140°06'0 0.0
2018-Feb-19 12:29N 35°33' E 140°06'0 0.0
2018-Feb-19 11:59N 35°33' E 140°06'0 0.0
2018-Feb-19 11:29N 35°33' E 140°06'0 0.5
2018-Feb-19 11:00N 35°33' E 140°06'5 9.0
2018-Feb-19 10:30N 35°32' E 140°00'5 9.8
2018-Feb-19 10:00N 35°30' E 139°55'5 9.9
2018-Feb-19 09:30N 35°27' E 139°50'510.2
2018-Feb-19 09:01N 35°25' E 139°45'5 9.6
2018-Feb-19 08:30N 35°24' E 139°39'0 0.8
2018-Feb-19 07:59N 35°23' E 139°39'0 0.0
2018-Feb-19 07:29N 35°23' E 139°39'0 0.0
2018-Feb-19 06:59N 35°23' E 139°39'0 0.0
2018-Feb-19 06:29N 35°23' E 139°39'0 0.0
2018-Feb-19 05:59N 35°23' E 139°39'0 0.0
2018-Feb-19 05:29N 35°23' E 139°39'0 0.0
2018-Feb-19 04:59N 35°23' E 139°39'0 0.0
2018-Feb-19 04:29N 35°23' E 139°39'0 0.0
2018-Feb-19 03:59N 35°23' E 139°39'0 0.0
2018-Feb-19 03:29N 35°23' E 139°39'0 0.0
2018-Feb-19 02:59N 35°23' E 139°39'0 0.0
2018-Feb-19 02:29N 35°23' E 139°39'0 0.0
2018-Feb-19 01:59N 35°23' E 139°39'0 0.0
2018-Feb-19 01:29N 35°23' E 139°39'0 0.0
2018-Feb-19 00:59N 35°23' E 139°39'0 0.0
2018-Feb-19 00:29N 35°23' E 139°39'0 0.0
2018-Feb-18 23:59N 35°23' E 139°39'0 0.0
2018-Feb-18 23:29N 35°23' E 139°39'0 1.0
2018-Feb-18 23:00N 35°24' E 139°39'4 8.5
2018-Feb-18 22:30N 35°25' E 139°44'5 9.6
2018-Feb-18 22:00N 35°28' E 139°49'5 9.3
2018-Feb-18 21:31N 35°31' E 139°53'5 9.3
2018-Feb-18 21:00N 35°32' E 139°59'5 9.3
2018-Feb-18 20:30N 35°33' E 140°04'2 3.2
2018-Feb-18 20:00N 35°33' E 140°06'0 0.0
2018-Feb-18 19:30N 35°33' E 140°06'0 0.0
2018-Feb-18 19:00N 35°33' E 140°06'0 0.0
2018-Feb-18 18:29N 35°33' E 140°06'0 0.0
2018-Feb-18 17:59N 35°33' E 140°06'0 0.0
2018-Feb-18 17:29N 35°33' E 140°06'0 0.0
2018-Feb-18 16:59N 35°33' E 140°06'0 0.0
2018-Feb-18 16:29N 35°33' E 140°06'0 0.0
2018-Feb-18 15:53N 35°33' E 140°06'0 0.0
2018-Feb-18 15:29N 35°33' E 140°06'0 0.0
2018-Feb-18 14:59N 35°33' E 140°06'0 0.0
2018-Feb-18 14:29N 35°33' E 140°06'0 0.0
2018-Feb-18 13:59N 35°33' E 140°06'0 0.0
2018-Feb-18 13:29N 35°33' E 140°06'0 0.0
2018-Feb-18 12:59N 35°33' E 140°06'0 0.0
2018-Feb-18 12:29N 35°33' E 140°06'0 0.0
2018-Feb-18 11:59N 35°33' E 140°06'0 0.0
2018-Feb-18 11:29N 35°33' E 140°06'0 0.0
2018-Feb-18 10:59N 35°33' E 140°06'0 0.0
2018-Feb-18 10:29N 35°33' E 140°06'0 0.0
2018-Feb-18 09:59N 35°33' E 140°06'0 0.0
2018-Feb-18 09:29N 35°33' E 140°06'0 0.0
2018-Feb-18 08:59N 35°33' E 140°06'0 0.0
2018-Feb-18 08:29N 35°33' E 140°06'0 0.0
2018-Feb-18 07:59N 35°33' E 140°06'0 0.0
2018-Feb-18 07:29N 35°33' E 140°06'0 0.0
2018-Feb-18 06:59N 35°33' E 140°06'0 0.0
2018-Feb-18 06:29N 35°33' E 140°06'1 1.1
2018-Feb-18 06:00N 35°33' E 140°06'5 9.6
2018-Feb-18 05:30N 35°32' E 139°60'510.1
2018-Feb-18 05:00N 35°29' E 139°55'5 9.9
2018-Feb-18 04:30N 35°27' E 139°49'4 9.1
2018-Feb-18 04:01N 35°25' E 139°44'5 9.4
2018-Feb-18 03:31N 35°24' E 139°39'0 0.7
2018-Feb-18 03:00N 35°23' E 139°39'0 0.0
2018-Feb-18 02:31N 35°23' E 139°39'0 0.0
2018-Feb-18 02:01N 35°23' E 139°39'0 0.0
2018-Feb-18 01:31N 35°23' E 139°39'0 0.0
2018-Feb-18 01:01N 35°23' E 139°39'0 0.0
2018-Feb-18 00:31N 35°23' E 139°39'0 0.0
2018-Feb-18 00:00N 35°23' E 139°39'0 0.0
2018-Feb-17 23:30N 35°23' E 139°39'0 0.0
2018-Feb-17 22:59N 35°23' E 139°39'0 0.0
2018-Feb-17 22:30N 35°23' E 139°39'0 0.0
2018-Feb-17 22:01N 35°23' E 139°39'0 0.0
2018-Feb-17 21:31N 35°23' E 139°39'0 0.0
2018-Feb-17 21:00N 35°23' E 139°39'0 0.0
2018-Feb-17 20:30N 35°23' E 139°39'0 0.0
2018-Feb-17 20:01N 35°23' E 139°39'0 0.0
2018-Feb-17 19:31N 35°23' E 139°39'0 0.0
2018-Feb-17 19:01N 35°23' E 139°39'0 0.0
2018-Feb-17 18:30N 35°23' E 139°39'0 0.0
2018-Feb-17 18:00N 35°23' E 139°39'0 0.0
2018-Feb-17 17:31N 35°23' E 139°39'0 0.0
2018-Feb-17 17:01N 35°23' E 139°39'0 0.0
2018-Feb-17 16:31N 35°23' E 139°39'0 0.0
2018-Feb-17 16:00N 35°23' E 139°39'0 0.0
2018-Feb-17 15:31N 35°23' E 139°39'0 0.0
2018-Feb-17 15:01N 35°23' E 139°39'0 0.0
2018-Feb-17 14:31N 35°23' E 139°39'0 0.0
2018-Feb-17 14:01N 35°23' E 139°39'0 0.0
2018-Feb-17 13:31N 35°23' E 139°39'0 0.0
2018-Feb-17 13:01N 35°23' E 139°39'0 0.0
2018-Feb-17 12:31N 35°23' E 139°39'0 0.0
2018-Feb-17 12:01N 35°23' E 139°39'0 0.0
2018-Feb-17 11:29N 35°23' E 139°39'0 0.0
2018-Feb-17 11:00N 35°23' E 139°39'0 0.0
2018-Feb-17 10:30N 35°23' E 139°39'0 0.0
2018-Feb-17 10:00N 35°23' E 139°39'0 0.0
2018-Feb-17 09:31N 35°23' E 139°39'0 0.0
2018-Feb-17 09:00N 35°23' E 139°39'0 0.0
2018-Feb-17 08:31N 35°23' E 139°39'0 0.0
2018-Feb-17 08:00N 35°23' E 139°39'0 0.0
2018-Feb-17 07:30N 35°23' E 139°39'0 0.0
2018-Feb-17 07:01N 35°23' E 139°39'0 0.0
2018-Feb-17 06:31N 35°23' E 139°39'0 0.0
2018-Feb-17 06:01N 35°23' E 139°39'0 0.0
2018-Feb-17 05:30N 35°23' E 139°39'0 0.0
2018-Feb-17 05:01N 35°23' E 139°39'0 0.0
2018-Feb-17 04:30N 35°23' E 139°39'0 0.0
2018-Feb-17 04:00N 35°23' E 139°39'0 0.0
2018-Feb-17 03:30N 35°23' E 139°39'0 0.0
2018-Feb-17 03:00N 35°23' E 139°39'0 0.0
2018-Feb-17 02:30N 35°23' E 139°39'0 0.0
2018-Feb-17 02:00N 35°23' E 139°39'0 0.0
2018-Feb-17 01:30N 35°23' E 139°39'0 0.0
2018-Feb-17 01:00N 35°23' E 139°39'0 0.0
2018-Feb-17 00:31N 35°23' E 139°39'0 0.0
2018-Feb-17 00:01N 35°23' E 139°39'0 0.0
2018-Feb-16 23:30N 35°23' E 139°39'0 0.0
2018-Feb-16 23:01N 35°23' E 139°39'0 0.0
2018-Feb-16 22:30N 35°23' E 139°39'0 0.0
2018-Feb-16 22:01N 35°23' E 139°39'0 0.0
2018-Feb-16 21:30N 35°23' E 139°39'0 0.0
2018-Feb-16 21:01N 35°23' E 139°39'0 0.0
2018-Feb-16 20:31N 35°23' E 139°39'0 0.0
2018-Feb-16 20:01N 35°23' E 139°39'0 0.0
2018-Feb-16 19:30N 35°23' E 139°39'0 0.0
2018-Feb-16 19:00N 35°23' E 139°39'0 0.0
2018-Feb-16 18:31N 35°23' E 139°39'0 0.0
2018-Feb-16 18:01N 35°23' E 139°39'0 0.0
2018-Feb-16 17:31N 35°23' E 139°39'0 0.0
2018-Feb-16 17:00N 35°23' E 139°39'0 0.0
2018-Feb-16 16:30N 35°23' E 139°39'0 0.0
2018-Feb-16 16:01N 35°23' E 139°39'0 0.0
2018-Feb-16 15:31N 35°23' E 139°39'0 0.0
2018-Feb-16 15:01N 35°23' E 139°39'0 0.0
2018-Feb-16 14:31N 35°23' E 139°39'0 0.0
2018-Feb-16 14:00N 35°23' E 139°39'0 0.0
2018-Feb-16 13:30N 35°23' E 139°39'0 0.0
2018-Feb-16 13:00N 35°23' E 139°39'0 0.0
2018-Feb-16 12:30N 35°23' E 139°39'0 0.0
2018-Feb-16 12:00N 35°23' E 139°39'0 0.0
2018-Feb-16 11:31N 35°23' E 139°39'0 0.0
2018-Feb-16 11:00N 35°23' E 139°39'0 0.0
2018-Feb-16 10:31N 35°23' E 139°39'0 0.0
2018-Feb-16 10:00N 35°23' E 139°39'0 0.0
2018-Feb-16 09:31N 35°23' E 139°39'0 0.0
2018-Feb-16 09:01N 35°23' E 139°39'0 0.0
2018-Feb-16 08:30N 35°23' E 139°39'0 0.0
2018-Feb-16 08:00N 35°23' E 139°39'0 0.0
2018-Feb-16 07:30N 35°23' E 139°39'0 0.0
2018-Feb-16 07:01N 35°23' E 139°39'0 0.0
2018-Feb-16 06:30N 35°23' E 139°39'0 0.0
2018-Feb-16 06:01N 35°23' E 139°39'0 0.0
2018-Feb-16 05:31N 35°23' E 139°39'0 0.0
2018-Feb-16 05:00N 35°23' E 139°39'0 0.0
2018-Feb-16 04:30N 35°23' E 139°39'0 0.0
2018-Feb-16 04:01N 35°23' E 139°39'0 0.0
2018-Feb-16 03:31N 35°23' E 139°39'0 0.0
2018-Feb-16 03:00N 35°23' E 139°39'0 0.0
2018-Feb-16 02:31N 35°23' E 139°39'0 0.0
2018-Feb-16 02:00N 35°23' E 139°39'0 0.0
2018-Feb-16 01:31N 35°23' E 139°39'0 0.0
2018-Feb-16 01:00N 35°23' E 139°39'0 0.0
2018-Feb-16 00:31N 35°23' E 139°39'0 0.0
2018-Feb-16 00:00N 35°23' E 139°39'0 0.0
2018-Feb-15 23:30N 35°23' E 139°39'0 0.3
2018-Feb-15 23:01N 35°23' E 139°39'4 8.7
2018-Feb-15 22:31N 35°25' E 139°44'510.0
2018-Feb-15 22:01N 35°28' E 139°49'5 9.6
2018-Feb-15 21:31N 35°31' E 139°53'5 9.7
2018-Feb-15 21:00N 35°32' E 139°59'5 9.4
2018-Feb-15 20:30N 35°33' E 140°05'1 2.7
2018-Feb-15 20:00N 35°33' E 140°06'0 0.0
2018-Feb-15 19:30N 35°33' E 140°06'0 0.0
2018-Feb-15 18:59N 35°33' E 140°06'0 0.0
2018-Feb-15 18:29N 35°33' E 140°06'0 0.0
2018-Feb-15 17:59N 35°33' E 140°06'0 0.0
2018-Feb-15 17:29N 35°33' E 140°06'0 0.0
2018-Feb-15 16:59N 35°33' E 140°06'0 0.0
2018-Feb-15 16:29N 35°33' E 140°06'0 0.0
2018-Feb-15 15:59N 35°33' E 140°06'0 0.0
2018-Feb-15 15:29N 35°33' E 140°06'0 0.0
2018-Feb-15 14:59N 35°33' E 140°06'0 0.0
2018-Feb-15 14:29N 35°33' E 140°06'0 0.0
2018-Feb-15 13:59N 35°33' E 140°06'0 0.0
2018-Feb-15 13:29N 35°33' E 140°06'0 0.0
2018-Feb-15 12:59N 35°33' E 140°06'0 0.0
2018-Feb-15 12:29N 35°33' E 140°06'0 0.0
2018-Feb-15 11:59N 35°33' E 140°06'0 0.0
2018-Feb-15 11:29N 35°33' E 140°06'0 0.0
2018-Feb-15 10:59N 35°33' E 140°06'0 0.0
2018-Feb-15 10:29N 35°33' E 140°06'0 0.0
2018-Feb-15 09:59N 35°33' E 140°06'0 0.0
2018-Feb-15 09:29N 35°33' E 140°06'0 0.0
2018-Feb-15 08:59N 35°33' E 140°06'0 0.0
2018-Feb-15 08:29N 35°33' E 140°06'0 0.0
2018-Feb-15 07:59N 35°33' E 140°06'0 0.0
2018-Feb-15 07:29N 35°33' E 140°06'0 0.0
2018-Feb-15 06:59N 35°33' E 140°06'0 0.0
2018-Feb-15 06:20N 35°33' E 140°06'1 1.8
2018-Feb-15 06:00N 35°33' E 140°05'5 9.3
2018-Feb-15 05:30N 35°32' E 139°60'5 9.6
2018-Feb-15 05:00N 35°30' E 139°55'5 9.9
2018-Feb-15 04:30N 35°27' E 139°50'5 9.8
2018-Feb-15 04:00N 35°25' E 139°44'5 9.2
2018-Feb-15 03:30N 35°24' E 139°39'0 0.9
2018-Feb-15 03:00N 35°23' E 139°39'0 0.0
2018-Feb-15 02:26N 35°23' E 139°39'0 0.0
2018-Feb-15 01:56N 35°23' E 139°39'0 0.0
2018-Feb-15 01:29N 35°23' E 139°39'0 0.0
2018-Feb-15 00:59N 35°23' E 139°39'0 0.0
2018-Feb-15 00:29N 35°23' E 139°39'0 0.0
2018-Feb-14 23:59N 35°23' E 139°39'0 0.0
2018-Feb-14 23:29N 35°23' E 139°39'0 0.0
2018-Feb-14 22:59N 35°23' E 139°39'0 0.0
2018-Feb-14 22:29N 35°23' E 139°39'0 0.0
2018-Feb-14 21:59N 35°23' E 139°39'0 0.0
2018-Feb-14 21:29N 35°23' E 139°39'0 0.0
2018-Feb-14 20:59N 35°23' E 139°39'0 0.0
2018-Feb-14 20:29N 35°23' E 139°39'0 0.0
2018-Feb-14 19:59N 35°23' E 139°39'0 0.0
2018-Feb-14 19:29N 35°23' E 139°39'0 0.0
2018-Feb-14 18:58N 35°23' E 139°39'0 0.0
2018-Feb-14 18:28N 35°23' E 139°39'0 0.0
2018-Feb-14 17:58N 35°23' E 139°39'0 0.0
2018-Feb-14 17:29N 35°23' E 139°39'0 0.0
2018-Feb-14 16:58N 35°23' E 139°39'0 0.0
2018-Feb-14 16:28N 35°23' E 139°39'0 0.0
2018-Feb-14 15:58N 35°23' E 139°39'0 0.0
2018-Feb-14 15:28N 35°23' E 139°39'0 0.0
2018-Feb-14 14:58N 35°23' E 139°39'0 0.0
2018-Feb-14 14:28N 35°23' E 139°39'0 0.0
2018-Feb-14 13:58N 35°23' E 139°39'0 0.0
2018-Feb-14 13:28N 35°23' E 139°39'0 0.0
2018-Feb-14 12:58N 35°23' E 139°39'0 0.0
2018-Feb-14 12:28N 35°23' E 139°39'0 0.0
2018-Feb-14 11:58N 35°23' E 139°39'0 0.0
2018-Feb-14 11:25N 35°23' E 139°39'0 0.0
2018-Feb-14 10:58N 35°23' E 139°39'0 0.0
2018-Feb-14 10:28N 35°23' E 139°39'0 0.0
2018-Feb-14 09:58N 35°23' E 139°39'0 0.0
2018-Feb-14 09:28N 35°23' E 139°39'0 0.0
2018-Feb-14 08:58N 35°23' E 139°39'0 0.0
2018-Feb-14 08:28N 35°23' E 139°39'0 0.0
2018-Feb-14 07:58N 35°23' E 139°39'0 0.0
2018-Feb-14 07:28N 35°23' E 139°39'0 0.0
2018-Feb-14 06:58N 35°23' E 139°39'0 0.0
2018-Feb-14 06:28N 35°23' E 139°39'0 0.0
2018-Feb-14 05:58N 35°23' E 139°39'0 0.0
2018-Feb-14 05:25N 35°23' E 139°39'0 0.0
2018-Feb-14 04:58N 35°23' E 139°39'0 0.0
2018-Feb-14 04:28N 35°23' E 139°39'0 0.0
2018-Feb-14 03:58N 35°23' E 139°39'0 0.0
2018-Feb-14 03:28N 35°23' E 139°39'0 0.0
2018-Feb-14 02:58N 35°23' E 139°39'0 0.0
2018-Feb-14 02:28N 35°23' E 139°39'0 0.0
2018-Feb-14 01:55N 35°23' E 139°39'0 0.0
2018-Feb-14 01:28N 35°23' E 139°39'0 0.0
2018-Feb-14 00:58N 35°23' E 139°39'0 0.0
2018-Feb-14 00:28N 35°23' E 139°39'0 0.0
2018-Feb-13 23:58N 35°23' E 139°39'0 0.0
2018-Feb-13 23:28N 35°23' E 139°39'0 0.1
2018-Feb-13 23:01N 35°23' E 139°39'4 7.6
2018-Feb-13 22:30N 35°25' E 139°43'5 9.9
2018-Feb-13 22:00N 35°27' E 139°48'5 9.8
2018-Feb-13 21:30N 35°31' E 139°53'5 9.8
2018-Feb-13 21:01N 35°32' E 139°58'5 9.4
2018-Feb-13 20:30N 35°33' E 140°04'2 3.7
2018-Feb-13 19:59N 35°33' E 140°06'0 0.0
2018-Feb-13 19:31N 35°33' E 140°06'0 0.0
2018-Feb-13 19:01N 35°33' E 140°06'0 0.0
2018-Feb-13 18:30N 35°33' E 140°06'0 0.0
2018-Feb-13 18:00N 35°33' E 140°06'0 0.0
2018-Feb-13 17:30N 35°33' E 140°06'0 0.0
2018-Feb-13 17:00N 35°33' E 140°06'0 0.0
2018-Feb-13 16:30N 35°33' E 140°06'0 0.0
2018-Feb-13 16:00N 35°33' E 140°06'0 0.0
2018-Feb-13 15:30N 35°33' E 140°06'0 0.0
2018-Feb-13 15:00N 35°33' E 140°06'0 0.0
2018-Feb-13 14:30N 35°33' E 140°06'0 0.0
2018-Feb-13 14:00N 35°33' E 140°06'0 0.0
2018-Feb-13 13:30N 35°33' E 140°06'0 0.0
2018-Feb-13 13:00N 35°33' E 140°06'0 0.0
2018-Feb-13 12:30N 35°33' E 140°06'0 0.0
2018-Feb-13 11:59N 35°33' E 140°06'0 0.0
2018-Feb-13 11:29N 35°33' E 140°06'0 0.0
2018-Feb-13 11:00N 35°33' E 140°06'4 8.1
2018-Feb-13 10:30N 35°33' E 140°01'5 9.6
2018-Feb-13 10:00N 35°30' E 139°56'5 9.6
2018-Feb-13 09:30N 35°28' E 139°51'510.1
2018-Feb-13 09:00N 35°25' E 139°46'5 9.5
2018-Feb-13 08:30N 35°23' E 139°40'2 2.9
2018-Feb-13 07:58N 35°23' E 139°39'0 0.0
2018-Feb-13 07:28N 35°23' E 139°39'0 0.0
2018-Feb-13 06:58N 35°23' E 139°39'0 0.0
2018-Feb-13 06:28N 35°23' E 139°39'0 0.0
2018-Feb-13 05:58N 35°23' E 139°39'0 0.0
2018-Feb-13 05:28N 35°23' E 139°39'0 0.0
2018-Feb-13 04:58N 35°23' E 139°39'0 0.0
2018-Feb-13 04:28N 35°23' E 139°39'0 0.0
2018-Feb-13 03:55N 35°23' E 139°39'0 0.0
2018-Feb-13 03:28N 35°23' E 139°39'  

Dump ship's entire track history